createdAt,value
2023-05-10T00:01:20.509Z,23.28
2023-05-10T00:03:49.541Z,23.05
2023-05-10T00:06:17.211Z,23.11
2023-05-10T00:08:44.893Z,23.07
2023-05-10T00:11:12.499Z,23.12
2023-05-10T00:13:40.115Z,22.98
2023-05-10T00:16:08.120Z,22.99
2023-05-10T00:18:35.795Z,22.68
2023-05-10T00:21:04.962Z,23.03
2023-05-10T00:23:32.565Z,23.01
2023-05-10T00:26:00.202Z,22.85
2023-05-10T00:28:29.190Z,22.94
2023-05-10T00:30:57.873Z,22.75
2023-05-10T00:33:25.552Z,22.81
2023-05-10T00:35:53.459Z,22.75
2023-05-10T00:38:22.514Z,22.94
2023-05-10T00:40:50.256Z,22.97
2023-05-10T00:43:25.870Z,23.14
2023-05-10T00:45:53.651Z,23.10
2023-05-10T00:48:21.310Z,23.01
2023-05-10T00:50:48.927Z,22.93
2023-05-10T00:53:16.525Z,23.11
2023-05-10T00:55:46.657Z,22.78
2023-05-10T00:58:14.957Z,23.05
2023-05-10T01:00:43.573Z,22.88
2023-05-10T01:03:11.829Z,23.04
2023-05-10T01:05:39.525Z,22.82
2023-05-10T01:08:07.259Z,22.72
2023-05-10T01:10:34.840Z,22.91
2023-05-10T01:13:05.137Z,22.58
2023-05-10T01:15:32.824Z,22.68
2023-05-10T01:18:00.523Z,22.80
2023-05-10T01:20:28.165Z,22.77
2023-05-10T01:23:03.345Z,22.69
2023-05-10T01:25:34.762Z,22.63
2023-05-10T01:28:24.001Z,22.59
2023-05-10T01:31:25.281Z,22.53
2023-05-10T01:33:57.608Z,22.43
2023-05-10T01:36:27.976Z,22.50
2023-05-10T01:38:57.903Z,22.56
2023-05-10T01:41:27.372Z,22.38
2023-05-10T01:43:56.571Z,22.14
2023-05-10T01:46:26.910Z,22.31
2023-05-10T01:48:56.346Z,22.38
2023-05-10T01:51:24.554Z,22.25
2023-05-10T01:53:52.233Z,22.43
2023-05-10T01:56:20.567Z,22.19
2023-05-10T01:58:48.166Z,22.03
2023-05-10T02:01:15.908Z,21.79
2023-05-10T02:03:43.643Z,22.18
2023-05-10T02:06:15.478Z,22.25
2023-05-10T02:08:43.078Z,22.13
2023-05-10T02:11:10.888Z,22.16
2023-05-10T02:13:40.306Z,21.79
2023-05-10T02:16:08.314Z,22.00
2023-05-10T02:18:36.079Z,22.13
2023-05-10T02:21:03.747Z,22.00
2023-05-10T02:23:40.574Z,21.99
2023-05-10T02:26:08.202Z,21.72
2023-05-10T02:28:35.820Z,21.67
2023-05-10T02:31:06.398Z,21.60
2023-05-10T02:33:34.038Z,21.78
2023-05-10T02:36:01.664Z,21.85
2023-05-10T02:38:29.296Z,21.51
2023-05-10T02:40:59.379Z,21.51
2023-05-10T02:43:27.019Z,21.58
2023-05-10T02:45:54.742Z,21.50
2023-05-10T02:48:25.200Z,21.67
2023-05-10T02:50:52.953Z,21.60
2023-05-10T02:53:23.630Z,21.23
2023-05-10T02:55:52.454Z,21.38
2023-05-10T02:58:21.824Z,21.29
2023-05-10T03:00:49.463Z,21.30
2023-05-10T03:03:17.141Z,21.27
2023-05-10T03:05:44.747Z,21.36
2023-05-10T03:08:12.350Z,21.43
2023-05-10T03:10:41.789Z,21.48
2023-05-10T03:13:12.112Z,21.34
2023-05-10T03:15:43.372Z,21.23
2023-05-10T03:18:12.087Z,21.45
2023-05-10T03:20:40.886Z,21.44
2023-05-10T03:23:10.637Z,21.59
2023-05-10T03:25:38.283Z,21.49
2023-05-10T03:28:13.773Z,21.49
2023-05-10T03:30:45.626Z,21.50
2023-05-10T03:33:14.326Z,21.52
2023-05-10T03:35:46.700Z,21.33
2023-05-10T03:38:15.128Z,21.34
2023-05-10T03:40:42.800Z,21.29
2023-05-10T03:43:10.511Z,21.44
2023-05-10T03:45:38.181Z,21.43
2023-05-10T03:48:07.871Z,21.29
2023-05-10T03:50:35.508Z,21.22
2023-05-10T03:53:03.752Z,21.29
2023-05-10T03:55:35.421Z,21.41
2023-05-10T03:58:05.202Z,21.60
2023-05-10T04:00:34.107Z,21.67
2023-05-10T04:03:02.434Z,21.90
2023-05-10T04:05:31.469Z,21.76
2023-05-10T04:07:59.107Z,21.78
2023-05-10T04:10:26.783Z,21.91
2023-05-10T04:12:54.462Z,21.86
2023-05-10T04:15:22.300Z,21.96
2023-05-10T04:17:54.126Z,22.14
2023-05-10T04:20:24.623Z,21.66
2023-05-10T04:22:59.552Z,21.88
2023-05-10T04:25:27.402Z,22.12
2023-05-10T04:27:56.054Z,22.43
2023-05-10T04:30:23.680Z,22.31
2023-05-10T04:32:51.374Z,22.41
2023-05-10T04:35:19.104Z,22.71
2023-05-10T04:37:49.271Z,22.44
2023-05-10T04:40:18.526Z,22.32
2023-05-10T04:42:46.416Z,22.63
2023-05-10T04:45:16.674Z,22.99
2023-05-10T04:47:44.336Z,22.84
2023-05-10T04:50:12.000Z,22.51
2023-05-10T04:52:39.595Z,22.91
2023-05-10T04:55:08.952Z,22.97
2023-05-10T04:57:39.180Z,23.08
2023-05-10T05:00:07.529Z,23.13
2023-05-10T05:02:35.194Z,23.28
2023-05-10T05:05:03.307Z,23.09
2023-05-10T05:07:31.555Z,23.36
2023-05-10T05:09:59.214Z,23.33
2023-05-10T05:12:26.776Z,23.35
2023-05-10T05:14:55.804Z,23.05
2023-05-10T05:17:23.387Z,23.35
2023-05-10T05:19:51.070Z,22.91
2023-05-10T05:22:19.726Z,23.70
2023-05-10T05:24:47.698Z,23.79
2023-05-10T05:27:15.313Z,24.01
2023-05-10T05:29:42.910Z,23.88
2023-05-10T05:32:14.805Z,24.25
2023-05-10T05:34:42.524Z,23.97
2023-05-10T05:37:10.239Z,24.55
2023-05-10T05:39:38.255Z,24.52
2023-05-10T05:42:06.084Z,23.79
2023-05-10T05:44:33.780Z,23.86
2023-05-10T05:47:01.536Z,24.71
2023-05-10T05:49:30.884Z,24.65
2023-05-10T05:52:00.551Z,24.64
2023-05-10T05:54:28.286Z,24.84
2023-05-10T05:56:56.190Z,25.05
2023-05-10T05:59:23.830Z,25.28
2023-05-10T06:01:51.482Z,25.55
2023-05-10T06:04:19.285Z,24.44
2023-05-10T06:06:48.424Z,25.13
2023-05-10T06:09:16.051Z,24.49
2023-05-10T06:11:44.044Z,24.41
2023-05-10T06:14:11.726Z,25.46
2023-05-10T06:16:39.476Z,25.81
2023-05-10T06:19:07.167Z,25.04
2023-05-10T06:21:34.854Z,25.12
2023-05-10T06:24:03.883Z,25.36
2023-05-10T06:26:31.552Z,24.99
2023-05-10T06:29:02.365Z,24.66
2023-05-10T06:31:30.081Z,24.88
2023-05-10T06:33:58.813Z,24.92
2023-05-10T06:36:27.443Z,25.65
2023-05-10T06:38:55.206Z,25.82
2023-05-10T06:41:24.936Z,25.41
2023-05-10T06:43:52.676Z,25.85
2023-05-10T06:46:20.400Z,26.18
2023-05-10T06:48:48.096Z,26.47
2023-05-10T06:51:15.805Z,25.85
2023-05-10T06:53:43.383Z,26.63
2023-05-10T06:56:11.164Z,26.30
2023-05-10T06:58:40.231Z,26.71
2023-05-10T07:01:08.095Z,26.74
2023-05-10T07:03:35.979Z,27.17
2023-05-10T07:06:05.163Z,26.80
2023-05-10T07:08:32.854Z,27.11
2023-05-10T07:11:04.334Z,26.90
2023-05-10T07:13:32.644Z,26.38
2023-05-10T07:16:02.889Z,27.19
2023-05-10T07:18:30.678Z,27.44
2023-05-10T07:20:58.839Z,27.90
2023-05-10T07:23:26.536Z,26.71
2023-05-10T07:25:54.380Z,27.53
2023-05-10T07:28:22.053Z,27.45
2023-05-10T07:30:49.729Z,27.45
2023-05-10T07:33:18.831Z,26.98
2023-05-10T07:35:46.529Z,27.94
2023-05-10T07:38:14.254Z,27.69
2023-05-10T07:40:41.841Z,27.91
2023-05-10T07:43:09.468Z,27.40
2023-05-10T07:45:37.160Z,27.75
2023-05-10T07:48:04.914Z,28.62
2023-05-10T07:50:33.940Z,28.51
2023-05-10T07:53:01.603Z,28.59
2023-05-10T07:55:29.186Z,28.26
2023-05-10T07:57:57.009Z,28.86
2023-05-10T08:00:24.567Z,28.94
2023-05-10T08:02:52.419Z,29.33
2023-05-10T08:05:20.117Z,28.79
2023-05-10T08:07:49.112Z,29.14
2023-05-10T08:10:17.747Z,28.53
2023-05-10T08:12:45.498Z,29.08
2023-05-10T08:15:13.130Z,29.55
2023-05-10T08:17:40.761Z,29.09
2023-05-10T08:20:09.383Z,29.14
2023-05-10T08:22:37.010Z,29.65
2023-05-10T08:25:06.504Z,29.48
2023-05-10T08:27:36.042Z,29.10
2023-05-10T08:30:03.643Z,29.26
2023-05-10T08:32:31.773Z,29.32
2023-05-10T08:34:59.600Z,29.70
2023-05-10T08:37:27.196Z,30.17
2023-05-10T08:39:54.832Z,29.69
2023-05-10T08:42:24.150Z,28.49
2023-05-10T08:44:51.750Z,29.34
2023-05-10T08:47:19.383Z,29.91
2023-05-10T08:49:47.150Z,29.60
2023-05-10T08:52:14.815Z,29.00
2023-05-10T08:54:42.507Z,29.67
2023-05-10T08:57:10.365Z,31.01
2023-05-10T08:59:40.407Z,30.32
2023-05-10T09:02:08.075Z,30.77
2023-05-10T09:04:35.759Z,30.90
2023-05-10T09:07:03.477Z,30.25
2023-05-10T09:09:31.065Z,29.52
2023-05-10T09:11:58.731Z,29.21
2023-05-10T09:14:26.589Z,29.05
2023-05-10T09:16:56.175Z,29.65
2023-05-10T09:19:23.856Z,30.47
2023-05-10T09:21:51.563Z,30.39
2023-05-10T09:24:19.221Z,30.69
2023-05-10T09:26:50.337Z,30.61
2023-05-10T09:29:18.197Z,30.52
2023-05-10T09:31:47.329Z,30.76
2023-05-10T09:34:19.745Z,30.30
2023-05-10T09:36:54.245Z,30.63
2023-05-10T09:39:22.174Z,30.79
2023-05-10T09:41:50.054Z,30.94
2023-05-10T09:44:19.791Z,30.28
2023-05-10T09:46:50.959Z,30.99
2023-05-10T09:49:19.955Z,32.25
2023-05-10T09:51:47.598Z,32.53
2023-05-10T09:54:16.162Z,32.66
2023-05-10T09:56:43.910Z,32.06
2023-05-10T09:59:12.188Z,32.93
2023-05-10T10:01:39.904Z,31.45
2023-05-10T10:04:08.290Z,32.02
2023-05-10T10:06:40.300Z,32.00
2023-05-10T10:09:08.489Z,31.80
2023-05-10T10:11:36.770Z,32.65
2023-05-10T10:14:04.658Z,32.50
2023-05-10T10:16:32.462Z,32.45
2023-05-10T10:19:00.433Z,32.56
2023-05-10T10:21:32.027Z,32.54
2023-05-10T10:24:01.044Z,33.30
2023-05-10T10:26:28.658Z,33.58
2023-05-10T10:28:59.290Z,32.74
2023-05-10T10:31:47.393Z,32.74
2023-05-10T10:34:19.379Z,33.22
2023-05-10T10:36:47.987Z,33.37
2023-05-10T10:39:17.051Z,33.44
2023-05-10T10:41:51.133Z,33.88
2023-05-10T10:44:25.558Z,33.76
2023-05-10T10:47:09.265Z,32.90
2023-05-10T10:49:40.361Z,33.04
2023-05-10T10:52:17.818Z,32.89
2023-05-10T10:54:51.005Z,33.57
2023-05-10T10:57:19.962Z,33.72
2023-05-10T10:59:47.658Z,33.80
2023-05-10T11:02:31.284Z,33.72
2023-05-10T11:04:59.142Z,34.19
2023-05-10T11:07:26.803Z,34.16
2023-05-10T11:09:55.749Z,34.72
2023-05-10T11:12:23.401Z,34.30
2023-05-10T11:14:51.950Z,34.78
2023-05-10T11:17:24.484Z,35.00
2023-05-10T11:20:05.465Z,34.83
2023-05-10T11:22:33.274Z,35.22
2023-05-10T11:25:03.267Z,34.75
2023-05-10T11:27:30.929Z,34.87
2023-05-10T11:29:58.525Z,35.13
2023-05-10T11:32:26.156Z,34.18
2023-05-10T11:34:53.822Z,35.28
2023-05-10T11:37:21.452Z,36.61
2023-05-10T11:39:49.292Z,37.56
2023-05-10T11:42:18.231Z,39.36
2023-05-10T11:44:51.651Z,40.69
2023-05-10T11:47:19.291Z,40.75
2023-05-10T11:49:48.880Z,41.05
2023-05-10T11:52:31.356Z,42.29
2023-05-10T11:54:59.412Z,42.66
2023-05-10T11:57:29.482Z,43.76
2023-05-10T11:59:58.107Z,44.08
2023-05-10T12:02:25.848Z,44.75
2023-05-10T12:04:53.613Z,45.92
2023-05-10T12:07:21.297Z,46.98
2023-05-10T12:10:03.791Z,47.91
2023-05-10T12:12:38.489Z,47.86
2023-05-10T12:15:07.286Z,49.46
2023-05-10T12:17:35.553Z,51.13
2023-05-10T12:20:15.765Z,49.21
2023-05-10T12:22:45.788Z,49.68
2023-05-10T12:25:13.360Z,50.58
2023-05-10T12:27:43.375Z,49.69
2023-05-10T12:30:11.533Z,48.97
2023-05-10T12:32:39.640Z,49.77
2023-05-10T12:35:07.558Z,49.50
2023-05-10T12:37:39.968Z,49.99
2023-05-10T12:40:08.956Z,50.29
2023-05-10T12:42:37.269Z,51.63
2023-05-10T12:45:06.901Z,50.55
2023-05-10T12:47:34.789Z,52.10
2023-05-10T12:50:03.488Z,52.71
2023-05-10T12:52:31.258Z,51.71
2023-05-10T12:54:58.884Z,50.77
2023-05-10T12:57:26.551Z,52.05
2023-05-10T12:59:54.221Z,50.87
2023-05-10T13:02:24.138Z,50.34
2023-05-10T13:04:52.085Z,50.28
2023-05-10T13:07:19.781Z,50.66
2023-05-10T13:09:47.436Z,52.20
2023-05-10T13:12:15.105Z,52.22
2023-05-10T13:14:42.792Z,50.59
2023-05-10T13:17:10.559Z,49.54
2023-05-10T13:19:39.687Z,48.46
2023-05-10T13:22:07.304Z,50.49
2023-05-10T13:24:34.943Z,52.00
2023-05-10T13:27:02.527Z,53.38
2023-05-10T13:29:30.134Z,51.85
2023-05-10T13:31:57.869Z,52.53
2023-05-10T13:34:25.511Z,51.88
2023-05-10T13:36:56.717Z,52.48
2023-05-10T13:39:24.305Z,52.21
2023-05-10T13:41:53.797Z,51.31
2023-05-10T13:44:22.307Z,51.84
2023-05-10T13:46:50.028Z,52.51
2023-05-10T13:49:17.762Z,50.32
2023-05-10T13:51:45.586Z,52.30
2023-05-10T13:54:14.573Z,52.49
2023-05-10T13:57:05.657Z,52.17
2023-05-10T13:59:33.316Z,51.53
2023-05-10T14:02:01.136Z,51.57
2023-05-10T14:04:28.888Z,52.49
2023-05-10T14:06:56.776Z,54.63
2023-05-10T14:09:25.836Z,52.23
2023-05-10T14:11:53.515Z,50.22
2023-05-10T14:14:21.490Z,51.87
2023-05-10T14:16:49.392Z,53.46
2023-05-10T14:19:17.162Z,53.12
2023-05-10T14:21:45.126Z,53.72
2023-05-10T14:24:12.919Z,55.76
2023-05-10T14:26:41.942Z,54.22
2023-05-10T14:29:11.563Z,53.11
2023-05-10T14:31:40.232Z,52.63
2023-05-10T14:34:07.920Z,52.51
2023-05-10T14:36:35.637Z,53.78
2023-05-10T14:39:03.841Z,54.25
2023-05-10T14:41:31.970Z,54.15
2023-05-10T14:44:00.947Z,53.39
2023-05-10T14:46:28.944Z,53.57
2023-05-10T14:48:56.770Z,55.38
2023-05-10T14:51:24.380Z,55.90
2023-05-10T14:53:52.016Z,56.28
2023-05-10T14:56:19.655Z,55.78
2023-05-10T14:58:47.365Z,54.64
2023-05-10T15:01:16.388Z,53.13
2023-05-10T15:03:44.198Z,50.50
2023-05-10T15:06:12.676Z,51.63
2023-05-10T15:08:40.311Z,51.11
2023-05-10T15:11:07.972Z,49.04
2023-05-10T15:13:35.554Z,46.51
2023-05-10T15:16:03.237Z,45.22
2023-05-10T15:18:32.283Z,44.53
2023-05-10T15:20:59.901Z,44.71
2023-05-10T15:23:27.604Z,47.00
2023-05-10T15:25:56.647Z,47.34
2023-05-10T15:28:24.588Z,46.76
2023-05-10T15:30:52.190Z,47.18
2023-05-10T15:33:19.790Z,48.72
2023-05-10T15:35:48.775Z,48.28
2023-05-10T15:38:16.393Z,46.77
2023-05-10T15:40:44.000Z,45.32
2023-05-10T15:43:11.624Z,44.75
2023-05-10T15:45:39.249Z,44.32
2023-05-10T15:48:07.512Z,43.17
2023-05-10T15:50:35.143Z,41.81
2023-05-10T15:53:04.144Z,40.68
2023-05-10T15:55:32.218Z,39.85
2023-05-10T15:57:59.839Z,39.37
2023-05-10T16:00:27.643Z,38.90
2023-05-10T16:02:55.410Z,38.20
2023-05-10T16:05:23.162Z,37.98
2023-05-10T16:07:50.809Z,38.24
2023-05-10T16:10:19.798Z,38.74
2023-05-10T16:12:47.524Z,38.59
2023-05-10T16:15:15.402Z,37.63
2023-05-10T16:17:43.299Z,37.24
2023-05-10T16:20:11.282Z,34.70
2023-05-10T16:22:38.978Z,35.10
2023-05-10T16:25:07.336Z,35.61
2023-05-10T16:27:36.513Z,34.95
2023-05-10T16:30:04.283Z,34.66
2023-05-10T16:32:31.857Z,35.42
2023-05-10T16:34:59.845Z,33.84
2023-05-10T16:37:27.559Z,35.68
2023-05-10T16:39:55.170Z,35.51
2023-05-10T16:42:23.929Z,36.49
2023-05-10T16:44:52.997Z,35.00
2023-05-10T16:47:20.599Z,34.06
2023-05-10T16:49:48.270Z,34.86
2023-05-10T16:52:15.906Z,33.69
2023-05-10T16:54:43.529Z,34.79
2023-05-10T16:57:11.198Z,36.68
2023-05-10T16:59:38.954Z,36.24
2023-05-10T17:02:08.005Z,36.95
2023-05-10T17:04:36.082Z,37.19
2023-05-10T17:07:03.777Z,35.74
2023-05-10T17:09:31.393Z,37.50
2023-05-10T17:11:58.989Z,36.61
2023-05-10T17:14:26.954Z,36.02
2023-05-10T17:16:55.471Z,35.97
2023-05-10T17:19:26.265Z,34.60
2023-05-10T17:21:54.081Z,34.60
2023-05-10T17:24:21.709Z,33.34
2023-05-10T17:26:49.368Z,34.56
2023-05-10T17:29:17.048Z,34.59
2023-05-10T17:31:44.687Z,34.56
2023-05-10T17:34:12.343Z,34.28
2023-05-10T17:36:41.481Z,33.98
2023-05-10T17:39:09.089Z,33.24
2023-05-10T17:41:36.659Z,32.71
2023-05-10T17:44:04.287Z,34.11
2023-05-10T17:46:32.347Z,33.07
2023-05-10T17:48:59.946Z,32.80
2023-05-10T17:51:28.837Z,32.74
2023-05-10T17:53:57.862Z,32.21
2023-05-10T17:56:25.473Z,32.95
2023-05-10T17:58:53.057Z,32.24
2023-05-10T18:01:21.002Z,32.02
2023-05-10T18:03:49.868Z,32.84
2023-05-10T18:06:17.515Z,32.36
2023-05-10T18:08:45.680Z,32.16
2023-05-10T18:11:14.691Z,31.52
2023-05-10T18:13:42.299Z,31.87
2023-05-10T18:16:12.650Z,31.66
2023-05-10T18:18:40.518Z,32.34
2023-05-10T18:21:08.228Z,30.51
2023-05-10T18:23:35.896Z,30.91
2023-05-10T18:26:03.582Z,31.22
2023-05-10T18:28:32.595Z,31.96
2023-05-10T18:31:00.214Z,32.32
2023-05-10T18:33:28.185Z,31.61
2023-05-10T18:35:55.820Z,31.85
2023-05-10T18:38:23.416Z,32.07
2023-05-10T18:40:51.004Z,32.07
2023-05-10T18:43:18.617Z,31.96
2023-05-10T18:45:47.533Z,32.01
2023-05-10T18:48:15.167Z,31.82
2023-05-10T18:50:42.844Z,31.59
2023-05-10T18:53:12.022Z,31.68
2023-05-10T18:55:39.820Z,31.55
2023-05-10T18:58:07.476Z,31.22
2023-05-10T19:00:35.122Z,31.08
2023-05-10T19:03:04.322Z,30.79
2023-05-10T19:05:31.970Z,30.99
2023-05-10T19:07:59.564Z,30.83
2023-05-10T19:10:27.223Z,30.68
2023-05-10T19:12:54.910Z,30.62
2023-05-10T19:15:22.700Z,30.65
2023-05-10T19:17:50.628Z,30.34
2023-05-10T19:20:19.715Z,30.12
2023-05-10T19:23:02.041Z,30.01
2023-05-10T19:25:35.367Z,29.92
2023-05-10T19:28:03.107Z,29.95
2023-05-10T19:30:31.744Z,29.81
2023-05-10T19:32:59.417Z,29.69
2023-05-10T19:35:28.409Z,29.52
2023-05-10T19:37:56.034Z,29.60
2023-05-10T19:40:23.715Z,29.52
2023-05-10T19:42:51.357Z,29.51
2023-05-10T19:45:19.272Z,29.47
2023-05-10T19:47:47.194Z,29.30
2023-05-10T19:50:20.541Z,29.21
2023-05-10T19:52:50.564Z,29.16
2023-05-10T19:55:27.067Z,29.16
2023-05-10T19:57:54.683Z,28.94
2023-05-10T20:00:22.702Z,28.86
2023-05-10T20:02:50.486Z,28.90
2023-05-10T20:05:18.440Z,28.75
2023-05-10T20:07:46.242Z,28.64
2023-05-10T20:10:15.525Z,28.56
2023-05-10T20:12:43.180Z,28.58
2023-05-10T20:15:11.125Z,28.53
2023-05-10T20:17:38.846Z,28.27
2023-05-10T20:20:07.034Z,28.27
2023-05-10T20:22:34.698Z,28.18
2023-05-10T20:25:02.288Z,28.33
2023-05-10T20:27:31.258Z,28.25
2023-05-10T20:29:58.870Z,28.22
2023-05-10T20:32:26.510Z,28.29
2023-05-10T20:34:54.094Z,28.21
2023-05-10T20:37:21.794Z,28.05
2023-05-10T20:39:50.583Z,28.03
2023-05-10T20:42:18.302Z,27.81
2023-05-10T20:44:47.286Z,27.97
2023-05-10T20:47:15.155Z,28.13
2023-05-10T20:49:42.754Z,28.09
2023-05-10T20:52:10.498Z,28.12
2023-05-10T20:54:38.127Z,28.20
2023-05-10T20:57:05.737Z,28.15
2023-05-10T20:59:33.356Z,28.18
2023-05-10T21:02:02.370Z,28.18
2023-05-10T21:04:30.099Z,28.26
2023-05-10T21:06:57.810Z,28.43
2023-05-10T21:09:25.486Z,28.18
2023-05-10T21:11:53.161Z,28.11
2023-05-10T21:14:21.334Z,28.23
2023-05-10T21:16:51.055Z,28.06
2023-05-10T21:19:20.133Z,28.04
2023-05-10T21:21:47.870Z,28.03
2023-05-10T21:24:16.292Z,28.21
2023-05-10T21:26:43.939Z,28.52
2023-05-10T21:29:11.515Z,28.58
2023-05-10T21:31:39.148Z,28.56
2023-05-10T21:34:06.767Z,28.59
2023-05-10T21:36:35.728Z,28.61
2023-05-10T21:39:03.390Z,28.61
2023-05-10T21:41:30.981Z,28.35
2023-05-10T21:43:58.565Z,28.19
2023-05-10T21:46:26.389Z,28.15
2023-05-10T21:48:54.101Z,28.19
2023-05-10T21:51:22.380Z,28.18
2023-05-10T21:53:51.325Z,28.43
2023-05-10T21:56:18.920Z,28.23
2023-05-10T21:58:46.665Z,28.22
2023-05-10T22:01:14.980Z,28.25
2023-05-10T22:03:42.756Z,28.24
2023-05-10T22:06:10.380Z,28.25
2023-05-10T22:08:38.033Z,28.27
2023-05-10T22:11:07.057Z,28.34
2023-05-10T22:13:34.630Z,28.28
2023-05-10T22:16:02.295Z,28.33
2023-05-10T22:18:30.097Z,28.32
2023-05-10T22:20:57.899Z,28.36
2023-05-10T22:23:25.571Z,28.33
2023-05-10T22:25:53.177Z,28.28
2023-05-10T22:28:22.260Z,28.24
2023-05-10T22:30:49.913Z,28.22
2023-05-10T22:33:17.818Z,28.23
2023-05-10T22:35:45.398Z,28.25
2023-05-10T22:38:13.077Z,28.22
2023-05-10T22:40:40.687Z,28.20
2023-05-10T22:43:08.332Z,28.16
2023-05-10T22:45:37.325Z,28.18
2023-05-10T22:48:05.455Z,28.22
2023-05-10T22:50:33.098Z,28.17
2023-05-10T22:53:00.761Z,28.18
2023-05-10T22:55:28.501Z,28.15
2023-05-10T22:57:56.124Z,28.08
2023-05-10T23:00:23.776Z,28.04
2023-05-10T23:02:52.937Z,27.99
2023-05-10T23:05:20.590Z,27.94
2023-05-10T23:07:52.987Z,27.85
2023-05-10T23:10:20.810Z,27.81
2023-05-10T23:12:48.499Z,27.68
2023-05-10T23:15:16.080Z,27.59
2023-05-10T23:17:43.800Z,27.46
2023-05-10T23:20:13.911Z,27.30
2023-05-10T23:22:41.588Z,27.18
2023-05-10T23:25:09.617Z,27.07
2023-05-10T23:27:37.276Z,27.07
2023-05-10T23:30:05.121Z,27.00
2023-05-10T23:32:32.928Z,26.80
2023-05-10T23:35:00.535Z,26.66
2023-05-10T23:37:29.593Z,26.52
2023-05-10T23:39:57.241Z,26.48
2023-05-10T23:42:24.866Z,26.57
2023-05-10T23:44:52.635Z,26.81
2023-05-10T23:47:20.394Z,26.51
2023-05-10T23:49:48.045Z,26.61
2023-05-10T23:52:15.661Z,26.65
2023-05-10T23:54:45.934Z,26.19
2023-05-10T23:57:13.684Z,26.02
2023-05-10T23:59:41.284Z,26.04
